Time;durP1;ratioP1;P1;durP2;ratioP2;P2;SDS_P1;SDS_P2;PMS_P1;PMS_P2;Temp;Humidity;BMP_temperature;BMP_pressure;BME280_temperature;BME280_humidity;BME280_pressure;Samples;Min_cycle;Max_cycle;Signal;HPM_P1;HPM_P2
2022/12/15 00:40:31;;;;;;;120.30;40.40;;;;;;;;;;6244973;28;20037;-62
2022/12/15 00:43:35;;;;;;;115.80;38.20;;;;;;;;;;6255171;28;20045;-62
2022/12/15 00:46:54;;;;;;;107.60;38.33;;;;;;;;;;6249357;28;20052;-62
2022/12/15 01:23:12;;;;;;;141.00;46.08;;;;;;;;;;6251542;28;20076;-63
2022/12/15 01:26:13;;;;;;;128.10;43.22;;;;;;;;;;6250451;28;20076;-63
2022/12/15 01:29:13;;;;;;;128.23;42.70;;;;;;;;;;6253349;28;20042;-63
2022/12/15 01:32:14;;;;;;;138.25;43.70;;;;;;;;;;6247291;28;20049;-62
2022/12/15 01:35:14;;;;;;;125.43;44.03;;;;;;;;;;6246626;28;20049;-62
2022/12/15 01:38:15;;;;;;;144.20;44.95;;;;;;;;;;6246855;28;20049;-64
2022/12/15 01:41:16;;;;;;;135.52;44.65;;;;;;;;;;6246492;28;20745;-63
2022/12/15 01:44:22;;;;;;;139.00;44.75;;;;;;;;;;6247759;28;20052;-62
2022/12/15 01:47:25;;;;;;;134.40;45.95;;;;;;;;;;6266636;28;20053;-62
2022/12/15 01:50:28;;;;;;;131.10;43.25;;;;;;;;;;6247714;28;20048;-63
2022/12/15 01:53:33;;;;;;;143.80;45.47;;;;;;;;;;6247183;28;20473;-67
2022/12/15 01:56:38;;;;;;;145.18;46.42;;;;;;;;;;6248115;28;20042;-62
2022/12/15 01:59:49;;;;;;;150.85;45.15;;;;;;;;;;6265103;28;20056;-63
2022/12/15 02:02:50;;;;;;;143.35;48.60;;;;;;;;;;6255318;28;20056;-63
2022/12/15 02:05:52;;;;;;;146.80;45.45;;;;;;;;;;6245882;28;20045;-62
2022/12/15 02:08:55;;;;;;;163.82;50.45;;;;;;;;;;6248558;28;20380;-63
2022/12/15 02:12:16;;;;;;;136.82;46.50;;;;;;;;;;6265702;28;20426;-61
2022/12/15 02:15:36;;;;;;;138.18;44.75;;;;;;;;;;6253065;28;20155;-62
2022/12/15 02:18:44;;;;;;;143.77;46.08;;;;;;;;;;6264311;28;20056;-62
2022/12/15 02:22:10;;;;;;;145.60;45.80;;;;;;;;;;6264274;28;20049;-64
2022/12/15 02:25:41;;;;;;;145.38;45.50;;;;;;;;;;6253864;28;20064;-63
2022/12/15 02:29:00;;;;;;;136.32;43.38;;;;;;;;;;6258940;28;20070;-64
2022/12/15 02:32:13;;;;;;;131.98;39.75;;;;;;;;;;6265314;28;20079;-62
2022/12/15 02:35:39;;;;;;;128.43;40.33;;;;;;;;;;6266433;28;20076;-63
2022/12/15 02:38:42;;;;;;;131.55;40.17;;;;;;;;;;6256664;28;20049;-62
2022/12/15 02:41:45;;;;;;;116.65;38.42;;;;;;;;;;6253226;28;20044;-63
2022/12/15 02:44:51;;;;;;;124.65;38.30;;;;;;;;;;6261248;28;20049;-62
2022/12/15 02:48:03;;;;;;;120.70;38.85;;;;;;;;;;6263380;28;20037;-62
2022/12/15 02:51:10;;;;;;;114.53;36.40;;;;;;;;;;6250093;28;20053;-62
2022/12/15 02:54:14;;;;;;;130.63;41.22;;;;;;;;;;6250711;28;20137;-61
2022/12/15 02:57:40;;;;;;;125.10;39.67;;;;;;;;;;6260645;28;20049;-63
2022/12/15 03:00:46;;;;;;;117.60;36.95;;;;;;;;;;6251002;28;20057;-62
2022/12/15 03:03:48;;;;;;;110.40;36.08;;;;;;;;;;6247931;28;20059;-61
2022/12/15 03:06:54;;;;;;;121.85;38.75;;;;;;;;;;6254121;28;20049;-62
2022/12/15 03:09:57;;;;;;;121.72;36.67;;;;;;;;;;6260376;28;20148;-62
2022/12/15 03:12:58;;;;;;;120.10;39.13;;;;;;;;;;6257679;28;20049;-62
2022/12/15 03:15:59;;;;;;;120.40;35.72;;;;;;;;;;6259172;28;20110;-62
2022/12/15 03:19:00;;;;;;;124.05;37.53;;;;;;;;;;6258608;28;20083;-61
2022/12/15 03:22:00;;;;;;;118.70;39.22;;;;;;;;;;6257512;28;20041;-62
2022/12/15 03:25:01;;;;;;;121.97;37.20;;;;;;;;;;6242263;28;20049;-62
2022/12/15 03:28:02;;;;;;;125.32;39.33;;;;;;;;;;6260930;28;20475;-62
2022/12/15 03:31:03;;;;;;;124.32;39.60;;;;;;;;;;6250016;28;20055;-62
2022/12/15 03:34:03;;;;;;;130.38;38.80;;;;;;;;;;6259022;28;20045;-62
2022/12/15 03:37:04;;;;;;;133.57;42.35;;;;;;;;;;6251784;28;20069;-62
2022/12/15 03:40:05;;;;;;;139.00;38.20;;;;;;;;;;6252934;28;20048;-62
2022/12/15 03:43:06;;;;;;;140.90;43.17;;;;;;;;;;6250038;28;20045;-63
2022/12/15 03:46:06;;;;;;;136.85;39.03;;;;;;;;;;6249998;28;20053;-62
2022/12/15 03:49:07;;;;;;;132.68;42.05;;;;;;;;;;6251558;28;20052;-62
2022/12/15 03:52:07;;;;;;;140.32;42.33;;;;;;;;;;6261685;28;20046;-62
2022/12/15 03:55:09;;;;;;;146.02;41.78;;;;;;;;;;6251940;28;20049;-63
2022/12/15 03:58:09;;;;;;;130.50;41.05;;;;;;;;;;6257329;28;20056;-62
2022/12/15 04:01:20;;;;;;;135.25;39.72;;;;;;;;;;6260013;28;20052;-62
2022/12/15 04:04:20;;;;;;;136.18;42.15;;;;;;;;;;6260214;28;20092;-62
2022/12/15 04:07:21;;;;;;;136.02;43.10;;;;;;;;;;6254235;28;20048;-62
2022/12/15 04:10:23;;;;;;;140.95;44.45;;;;;;;;;;6266410;28;20053;-66
2022/12/15 04:13:24;;;;;;;139.75;41.63;;;;;;;;;;6247566;28;20483;-65
2022/12/15 04:16:25;;;;;;;146.32;44.58;;;;;;;;;;6248971;28;20045;-62
2022/12/15 04:22:47;;;;;;;146.30;43.13;;;;;;;;;;6247719;28;20057;-65
2022/12/15 05:32:12;;;;;;;115.45;39.35;;;;;;;;;;6248190;28;20045;-63
2022/12/15 05:35:12;;;;;;;142.35;42.22;;;;;;;;;;6246413;28;20472;-62
2022/12/15 05:38:13;;;;;;;125.25;38.80;;;;;;;;;;6251299;28;20067;-63
2022/12/15 05:41:14;;;;;;;135.07;41.40;;;;;;;;;;6253555;28;20087;-62
2022/12/15 05:44:16;;;;;;;128.52;41.60;;;;;;;;;;6253929;28;20629;-62
2022/12/15 05:47:16;;;;;;;127.60;40.33;;;;;;;;;;6254350;28;20047;-60
2022/12/15 05:50:19;;;;;;;127.05;41.90;;;;;;;;;;6254469;28;20068;-63
2022/12/15 05:53:20;;;;;;;129.30;42.45;;;;;;;;;;6251509;28;20147;-68
2022/12/15 05:56:21;;;;;;;134.80;42.33;;;;;;;;;;6265053;28;20116;-62
2022/12/15 05:59:21;;;;;;;128.48;42.15;;;;;;;;;;6260581;28;20044;-62
2022/12/15 06:02:22;;;;;;;133.23;42.30;;;;;;;;;;6264724;28;20052;-62
2022/12/15 06:05:22;;;;;;;136.25;46.20;;;;;;;;;;6257048;28;20049;-62
2022/12/15 06:08:23;;;;;;;138.10;45.58;;;;;;;;;;6259109;28;20215;-65
2022/12/15 06:11:24;;;;;;;141.25;45.75;;;;;;;;;;6263907;28;20037;-62
2022/12/15 06:14:24;;;;;;;147.15;45.35;;;;;;;;;;6251423;28;20084;-67
2022/12/15 06:17:25;;;;;;;146.63;44.63;;;;;;;;;;6253680;28;20065;-62
2022/12/15 06:20:26;;;;;;;140.65;43.17;;;;;;;;;;6257587;28;20049;-61
2022/12/15 06:23:27;;;;;;;138.45;45.13;;;;;;;;;;6261693;28;20426;-62
2022/12/15 06:26:30;;;;;;;138.87;44.77;;;;;;;;;;6255866;28;20137;-61
2022/12/15 06:29:32;;;;;;;150.07;45.13;;;;;;;;;;6254059;28;20045;-63
2022/12/15 06:32:35;;;;;;;145.50;44.92;;;;;;;;;;6252093;28;20049;-61
2022/12/15 06:35:36;;;;;;;141.43;47.30;;;;;;;;;;6245950;28;20579;-62
2022/12/15 06:38:37;;;;;;;147.13;48.53;;;;;;;;;;6252068;28;20045;-63
2022/12/15 06:41:38;;;;;;;142.07;48.05;;;;;;;;;;6250164;28;20060;-63
2022/12/15 06:44:39;;;;;;;149.25;47.28;;;;;;;;;;6250688;28;20090;-63
2022/12/15 06:47:39;;;;;;;153.70;47.17;;;;;;;;;;6246134;28;20041;-63
2022/12/15 06:50:40;;;;;;;156.95;46.70;;;;;;;;;;6249361;28;20053;-63
2022/12/15 06:53:41;;;;;;;155.48;46.67;;;;;;;;;;6250378;28;20077;-63
2022/12/15 06:56:42;;;;;;;144.07;47.13;;;;;;;;;;6247721;28;20053;-62
2022/12/15 06:59:42;;;;;;;146.35;48.38;;;;;;;;;;6249262;28;20037;-62
2022/12/15 07:02:43;;;;;;;144.48;46.85;;;;;;;;;;6247375;28;20140;-62
2022/12/15 07:05:44;;;;;;;137.63;44.65;;;;;;;;;;6244861;28;20054;-63
2022/12/15 07:08:55;;;;;;;145.55;45.25;;;;;;;;;;6260894;28;20041;-63
2022/12/15 07:11:55;;;;;;;148.98;45.78;;;;;;;;;;6262847;28;20053;-63
2022/12/15 07:14:56;;;;;;;136.07;45.10;;;;;;;;;;6263752;28;20045;-63
2022/12/15 07:17:57;;;;;;;151.95;45.55;;;;;;;;;;6249191;28;20071;-62
2022/12/15 07:21:03;;;;;;;134.73;41.20;;;;;;;;;;6249977;28;20049;-63
2022/12/15 07:24:04;;;;;;;131.98;40.72;;;;;;;;;;6252444;28;20071;-63
2022/12/15 07:27:04;;;;;;;122.95;41.25;;;;;;;;;;6264960;28;20136;-63
2022/12/15 07:30:06;;;;;;;136.43;41.30;;;;;;;;;;6246445;28;20459;-63
2022/12/15 07:33:07;;;;;;;128.18;41.92;;;;;;;;;;6249460;28;20060;-63
2022/12/15 07:36:07;;;;;;;134.15;40.38;;;;;;;;;;6253266;28;20041;-63
2022/12/15 07:39:08;;;;;;;141.13;43.15;;;;;;;;;;6261219;28;20075;-63
2022/12/15 07:42:08;;;;;;;134.23;43.33;;;;;;;;;;6261576;28;20049;-64
2022/12/15 07:45:10;;;;;;;132.35;41.25;;;;;;;;;;6252054;28;20072;-63
2022/12/15 07:48:10;;;;;;;131.70;40.47;;;;;;;;;;6269687;28;20080;-63
2022/12/15 07:51:11;;;;;;;123.43;38.90;;;;;;;;;;6252884;28;20060;-63
2022/12/15 07:54:12;;;;;;;129.93;41.83;;;;;;;;;;6266941;28;20045;-63
2022/12/15 07:57:15;;;;;;;131.57;43.47;;;;;;;;;;6249672;28;20044;-63
2022/12/15 08:00:16;;;;;;;132.63;41.15;;;;;;;;;;6249836;28;20091;-62
2022/12/15 08:03:17;;;;;;;126.33;40.80;;;;;;;;;;6249965;28;20048;-63
2022/12/15 08:06:17;;;;;;;128.05;39.35;;;;;;;;;;6251885;28;20294;-62
2022/12/15 08:09:18;;;;;;;126.80;40.25;;;;;;;;;;6248316;28;20106;-62
2022/12/15 08:12:19;;;;;;;139.02;42.63;;;;;;;;;;6249387;28;20044;-63
2022/12/15 08:15:19;;;;;;;133.40;41.92;;;;;;;;;;6247700;28;20140;-62
2022/12/15 08:18:20;;;;;;;140.60;41.47;;;;;;;;;;6249479;28;20038;-62
2022/12/15 08:21:20;;;;;;;140.20;42.03;;;;;;;;;;6248100;28;20079;-62
2022/12/15 08:24:21;;;;;;;130.98;41.45;;;;;;;;;;6261554;28;20510;-62
2022/12/15 08:27:23;;;;;;;133.98;40.70;;;;;;;;;;6266915;28;20139;-62
2022/12/15 08:30:23;;;;;;;126.60;41.95;;;;;;;;;;6268199;28;20041;-62
2022/12/15 08:33:25;;;;;;;138.05;43.17;;;;;;;;;;6251108;28;20044;-62
2022/12/15 08:36:27;;;;;;;146.60;43.42;;;;;;;;;;6246384;28;20053;-62
2022/12/15 08:39:28;;;;;;;150.70;44.22;;;;;;;;;;6245459;28;20560;-62
2022/12/15 08:42:32;;;;;;;131.32;41.10;;;;;;;;;;6252551;28;20116;-63
2022/12/15 08:45:34;;;;;;;140.05;45.58;;;;;;;;;;6266700;28;20041;-63
2022/12/15 08:48:34;;;;;;;132.15;41.97;;;;;;;;;;6267419;28;20487;-64
2022/12/15 08:51:35;;;;;;;137.88;42.10;;;;;;;;;;6268056;28;20053;-62
2022/12/15 08:54:37;;;;;;;129.88;41.20;;;;;;;;;;6266745;28;20126;-63
2022/12/15 08:57:38;;;;;;;141.52;42.42;;;;;;;;;;6267445;28;20067;-63
2022/12/15 09:00:38;;;;;;;132.07;41.55;;;;;;;;;;6267935;28;20051;-63
2022/12/15 09:03:39;;;;;;;131.27;41.92;;;;;;;;;;6266745;28;20862;-63
2022/12/15 09:06:40;;;;;;;137.55;42.28;;;;;;;;;;6260499;28;20045;-63
2022/12/15 09:09:41;;;;;;;139.32;42.42;;;;;;;;;;6248808;28;20049;-62
2022/12/15 09:12:42;;;;;;;143.33;43.90;;;;;;;;;;6245552;28;20072;-63
2022/12/15 09:15:44;;;;;;;136.13;43.10;;;;;;;;;;6255129;28;20103;-62
2022/12/15 09:18:51;;;;;;;133.45;44.03;;;;;;;;;;6246349;28;20056;-63
2022/12/15 09:21:52;;;;;;;145.98;45.70;;;;;;;;;;6245346;28;20047;-63
2022/12/15 09:24:52;;;;;;;131.82;41.47;;;;;;;;;;6243109;28;20057;-63
2022/12/15 09:27:53;;;;;;;129.23;43.00;;;;;;;;;;6244660;28;20071;-62
2022/12/15 09:30:54;;;;;;;126.03;41.00;;;;;;;;;;6246366;28;20091;-63
2022/12/15 09:33:56;;;;;;;125.43;40.40;;;;;;;;;;6247072;28;20041;-63
2022/12/15 09:36:57;;;;;;;125.93;38.28;;;;;;;;;;6246116;28;20119;-63
2022/12/15 09:39:58;;;;;;;125.18;40.47;;;;;;;;;;6245417;28;20033;-63
2022/12/15 09:42:59;;;;;;;131.73;42.92;;;;;;;;;;6244860;28;20500;-63
2022/12/15 09:46:11;;;;;;;128.05;40.22;;;;;;;;;;6261378;28;20443;-62
2022/12/15 09:49:41;;;;;;;129.35;39.78;;;;;;;;;;6249360;28;20077;-62
2022/12/15 09:52:50;;;;;;;132.23;39.67;;;;;;;;;;6245762;28;20418;-64
2022/12/15 09:55:56;;;;;;;130.70;41.08;;;;;;;;;;6244202;28;20128;-63
2022/12/15 09:59:02;;;;;;;126.82;40.83;;;;;;;;;;6241835;28;20045;-62
2022/12/15 10:02:42;;;;;;;135.32;41.80;;;;;;;;;;6244299;28;20067;-62
2022/12/15 10:06:09;;;;;;;127.88;41.40;;;;;;;;;;6244939;28;20048;-62
2022/12/15 10:09:20;;;;;;;123.05;39.95;;;;;;;;;;6247037;28;20551;-62
2022/12/15 10:12:28;;;;;;;128.65;39.78;;;;;;;;;;6258852;28;20123;-62
2022/12/15 10:15:54;;;;;;;136.15;42.40;;;;;;;;;;6250715;28;20406;-62
2022/12/15 10:19:22;;;;;;;126.35;38.92;;;;;;;;;;6243940;28;20049;-63
2022/12/15 10:22:26;;;;;;;124.72;39.22;;;;;;;;;;6244987;28;20056;-62
2022/12/15 10:25:30;;;;;;;126.40;40.88;;;;;;;;;;6240884;28;20052;-62
2022/12/15 10:28:48;;;;;;;128.38;39.72;;;;;;;;;;6248427;28;20057;-63
2022/12/15 10:31:57;;;;;;;132.20;38.60;;;;;;;;;;6245697;28;20072;-62
2022/12/15 10:34:57;;;;;;;125.15;38.92;;;;;;;;;;6259104;28;20077;-63
2022/12/15 10:38:02;;;;;;;118.68;37.33;;;;;;;;;;6247130;28;20050;-62
2022/12/15 10:41:06;;;;;;;126.95;38.25;;;;;;;;;;6256052;28;20045;-62
2022/12/15 10:44:23;;;;;;;130.35;39.85;;;;;;;;;;6248451;28;20049;-62
2022/12/15 10:47:26;;;;;;;126.97;41.10;;;;;;;;;;6251090;28;20134;-62
2022/12/15 10:50:28;;;;;;;131.02;42.15;;;;;;;;;;6249700;28;20056;-62
2022/12/15 10:53:44;;;;;;;120.53;37.60;;;;;;;;;;6257333;28;20049;-63
2022/12/15 10:56:48;;;;;;;128.35;45.15;;;;;;;;;;6250820;28;20561;-63
2022/12/15 10:59:51;;;;;;;116.53;39.85;;;;;;;;;;6248987;28;20052;-62
2022/12/15 11:02:51;;;;;;;127.00;40.40;;;;;;;;;;6250415;28;20045;-62
2022/12/15 11:05:54;;;;;;;117.90;39.97;;;;;;;;;;6252253;28;20079;-62
2022/12/15 11:09:06;;;;;;;126.32;41.63;;;;;;;;;;6249246;28;20094;-63
2022/12/15 11:15:55;;;;;;;179.65;49.97;;;;;;;;;;6249866;28;20045;-62
2022/12/15 11:19:06;;;;;;;141.75;43.15;;;;;;;;;;6250312;28;20140;-62
2022/12/15 11:22:38;;;;;;;129.73;41.33;;;;;;;;;;6246816;28;20053;-63
2022/12/15 11:25:43;;;;;;;122.20;41.17;;;;;;;;;;6249176;28;20052;-63
2022/12/15 11:28:55;;;;;;;127.47;42.38;;;;;;;;;;6259153;28;20053;-62
2022/12/15 11:31:55;;;;;;;170.50;54.75;;;;;;;;;;6249151;28;20632;-64
2022/12/15 11:34:56;;;;;;;136.85;42.50;;;;;;;;;;6247647;28;20088;-62
2022/12/15 11:38:21;;;;;;;148.27;49.15;;;;;;;;;;6249905;28;20518;-62
2022/12/15 11:42:01;;;;;;;132.70;44.13;;;;;;;;;;6248216;28;20048;-63
2022/12/15 11:45:16;;;;;;;160.23;47.60;;;;;;;;;;6246767;28;20057;-62
2022/12/15 11:48:25;;;;;;;117.50;36.13;;;;;;;;;;6249675;28;20041;-62
2022/12/15 11:51:39;;;;;;;120.78;40.25;;;;;;;;;;6268365;28;20515;-63
2022/12/15 11:54:53;;;;;;;116.10;39.13;;;;;;;;;;6265824;28;20065;-62
2022/12/15 11:58:17;;;;;;;116.50;36.38;;;;;;;;;;6251825;28;20392;-63
2022/12/15 12:01:36;;;;;;;120.80;38.78;;;;;;;;;;6246455;28;20064;-62
2022/12/15 12:04:42;;;;;;;122.63;38.75;;;;;;;;;;6247409;28;20048;-63
2022/12/15 12:07:56;;;;;;;121.45;41.80;;;;;;;;;;6249611;28;20049;-63
2022/12/15 12:11:13;;;;;;;116.75;39.05;;;;;;;;;;6250272;28;20055;-62
2022/12/15 12:14:23;;;;;;;129.18;40.17;;;;;;;;;;6245953;28;20060;-63
2022/12/15 12:17:37;;;;;;;126.75;40.22;;;;;;;;;;6244922;28;20055;-62
2022/12/15 12:21:05;;;;;;;125.60;42.55;;;;;;;;;;6245767;28;20034;-62
2022/12/15 12:24:27;;;;;;;131.20;40.63;;;;;;;;;;6248879;28;20052;-62
2022/12/15 12:27:39;;;;;;;118.78;39.50;;;;;;;;;;6249174;28;20132;-63
2022/12/15 12:30:44;;;;;;;120.90;40.88;;;;;;;;;;6246263;28;20080;-62
2022/12/15 12:33:50;;;;;;;126.20;42.15;;;;;;;;;;6248585;28;20049;-63
2022/12/15 12:36:53;;;;;;;147.25;46.80;;;;;;;;;;6249671;28;20132;-62
2022/12/15 12:40:01;;;;;;;160.77;49.53;;;;;;;;;;6250555;28;20079;-62
2022/12/15 12:43:03;;;;;;;161.35;52.63;;;;;;;;;;6246394;28;20048;-62
2022/12/15 12:46:17;;;;;;;151.55;48.92;;;;;;;;;;6252074;28;20091;-62
2022/12/15 12:49:37;;;;;;;164.07;56.00;;;;;;;;;;6262957;28;20048;-62
2022/12/15 12:52:45;;;;;;;222.98;69.85;;;;;;;;;;6265482;28;20393;-62
2022/12/15 12:55:45;;;;;;;285.67;79.28;;;;;;;;;;6267269;28;20084;-62
2022/12/15 12:58:46;;;;;;;163.68;50.22;;;;;;;;;;6266990;28;20420;-62
2022/12/15 13:01:47;;;;;;;143.30;46.17;;;;;;;;;;6266833;28;20051;-62
2022/12/15 13:04:56;;;;;;;179.57;56.45;;;;;;;;;;6266100;28;20067;-63
2022/12/15 13:08:06;;;;;;;150.48;46.72;;;;;;;;;;6267379;28;20036;-62
2022/12/15 13:11:44;;;;;;;151.05;45.85;;;;;;;;;;6267116;28;20052;-62
2022/12/15 13:14:46;;;;;;;165.27;48.78;;;;;;;;;;6266437;28;20041;-60
2022/12/15 13:17:53;;;;;;;150.33;49.03;;;;;;;;;;6266247;28;20037;-62
2022/12/15 13:20:55;;;;;;;152.00;47.45;;;;;;;;;;6259690;28;20127;-61
2022/12/15 13:23:58;;;;;;;156.18;49.80;;;;;;;;;;6244499;28;20583;-60
2022/12/15 13:27:07;;;;;;;143.88;45.75;;;;;;;;;;6241175;28;20381;-60
2022/12/15 13:30:08;;;;;;;158.50;51.30;;;;;;;;;;6259900;28;20966;-60
2022/12/15 13:33:18;;;;;;;158.95;52.20;;;;;;;;;;6249850;28;20044;-61
2022/12/15 13:36:40;;;;;;;174.85;59.55;;;;;;;;;;6246550;28;20110;-61
2022/12/15 13:39:53;;;;;;;182.60;59.05;;;;;;;;;;6248383;28;20447;-61
2022/12/15 13:43:03;;;;;;;169.55;55.30;;;;;;;;;;6248561;28;20040;-60
2022/12/15 13:46:16;;;;;;;182.60;57.80;;;;;;;;;;6248476;28;20061;-61
2022/12/15 13:49:32;;;;;;;164.00;54.22;;;;;;;;;;6249078;28;20795;-62
2022/12/15 13:52:44;;;;;;;176.40;55.03;;;;;;;;;;6243922;28;20049;-63
2022/12/15 13:55:55;;;;;;;197.70;66.57;;;;;;;;;;6247703;28;20160;-62
2022/12/15 13:59:02;;;;;;;203.13;64.97;;;;;;;;;;6245030;28;20071;-62
2022/12/15 14:02:22;;;;;;;254.30;84.20;;;;;;;;;;6241810;28;20466;-61
2022/12/15 14:05:24;;;;;;;363.25;113.25;;;;;;;;;;6245370;28;20048;-62
2022/12/15 14:08:28;;;;;;;232.15;74.65;;;;;;;;;;6251038;28;20637;-61
2022/12/15 14:11:33;;;;;;;179.98;58.63;;;;;;;;;;6250087;28;20048;-61
2022/12/15 14:14:41;;;;;;;178.73;55.33;;;;;;;;;;6248565;28;20057;-61
2022/12/15 14:17:47;;;;;;;173.27;54.88;;;;;;;;;;6251641;28;20061;-61
2022/12/15 14:20:48;;;;;;;180.82;57.72;;;;;;;;;;6248757;28;20064;-61
2022/12/15 14:23:48;;;;;;;188.60;62.33;;;;;;;;;;6253479;28;20494;-61
2022/12/15 14:26:49;;;;;;;179.13;56.63;;;;;;;;;;6249023;28;20648;-61
2022/12/15 14:30:19;;;;;;;171.40;58.28;;;;;;;;;;6254021;28;20499;-62
2022/12/15 14:33:19;;;;;;;166.13;53.75;;;;;;;;;;6249455;28;20049;-61
2022/12/15 14:36:20;;;;;;;184.55;58.10;;;;;;;;;;6245265;28;20687;-60
2022/12/15 14:39:27;;;;;;;174.98;54.67;;;;;;;;;;6245901;28;20424;-61
2022/12/15 14:42:29;;;;;;;135.80;44.33;;;;;;;;;;6250736;28;20053;-62
2022/12/15 14:45:31;;;;;;;151.73;52.00;;;;;;;;;;6247458;28;20061;-61
2022/12/15 14:48:37;;;;;;;162.93;53.75;;;;;;;;;;6248776;28;20051;-62
2022/12/15 14:51:43;;;;;;;171.85;55.35;;;;;;;;;;6247277;28;20049;-61
2022/12/15 14:54:53;;;;;;;165.50;55.25;;;;;;;;;;6249066;28;20350;-61
2022/12/15 14:57:54;;;;;;;154.13;55.15;;;;;;;;;;6247683;28;20060;-61
2022/12/15 15:00:55;;;;;;;156.57;53.80;;;;;;;;;;6247676;28;20049;-61
2022/12/15 15:04:04;;;;;;;146.07;49.30;;;;;;;;;;6249537;28;20518;-63
2022/12/15 15:07:15;;;;;;;146.23;49.53;;;;;;;;;;6250745;28;20142;-62
2022/12/15 15:10:27;;;;;;;133.20;46.10;;;;;;;;;;6251828;28;20480;-61
2022/12/15 15:13:36;;;;;;;132.98;45.83;;;;;;;;;;6249990;28;20076;-61
2022/12/15 15:16:37;;;;;;;144.00;47.97;;;;;;;;;;6245989;28;20064;-61
2022/12/15 15:19:48;;;;;;;209.20;65.38;;;;;;;;;;6246012;28;20040;-61
2022/12/15 15:23:11;;;;;;;233.13;74.15;;;;;;;;;;6253418;28;20036;-61
2022/12/15 15:26:15;;;;;;;201.15;63.58;;;;;;;;;;6250566;28;20175;-61
2022/12/15 15:29:37;;;;;;;188.23;61.15;;;;;;;;;;6250411;28;20606;-61
2022/12/15 15:32:52;;;;;;;151.00;49.15;;;;;;;;;;6247199;28;20057;-62
2022/12/15 15:35:55;;;;;;;163.05;53.50;;;;;;;;;;6248096;28;20049;-61
2022/12/15 15:38:57;;;;;;;197.63;58.95;;;;;;;;;;6250155;28;20148;-64
2022/12/15 15:42:03;;;;;;;212.75;66.38;;;;;;;;;;6249936;28;20049;-62
2022/12/15 15:45:12;;;;;;;206.82;64.57;;;;;;;;;;6249676;28;20049;-62
2022/12/15 15:48:38;;;;;;;199.32;65.30;;;;;;;;;;6250606;28;20522;-62
2022/12/15 15:51:38;;;;;;;210.82;65.55;;;;;;;;;;6244446;28;20055;-61
2022/12/15 15:54:39;;;;;;;229.70;74.28;;;;;;;;;;6247829;28;20057;-61
2022/12/15 15:57:42;;;;;;;253.95;85.78;;;;;;;;;;6250112;28;20053;-61
2022/12/15 16:00:42;;;;;;;290.02;94.82;;;;;;;;;;6249126;28;20048;-62
2022/12/15 16:03:43;;;;;;;319.35;105.07;;;;;;;;;;6249722;28;20052;-61
2022/12/15 16:06:44;;;;;;;360.85;109.22;;;;;;;;;;6246209;28;20048;-62
2022/12/15 16:09:44;;;;;;;524.58;143.82;;;;;;;;;;6248717;28;20102;-62
2022/12/15 16:12:52;;;;;;;395.15;121.65;;;;;;;;;;6249761;28;20431;-62
2022/12/15 16:15:54;;;;;;;375.40;116.80;;;;;;;;;;6249454;28;20126;-61
2022/12/15 16:18:55;;;;;;;367.55;113.53;;;;;;;;;;6245781;28;20047;-62
2022/12/15 16:21:55;;;;;;;334.52;109.57;;;;;;;;;;6247494;28;20809;-62
2022/12/15 16:24:56;;;;;;;335.33;107.97;;;;;;;;;;6248228;28;20052;-61
2022/12/15 16:27:58;;;;;;;320.90;105.10;;;;;;;;;;6245638;28;20149;-62
2022/12/15 16:31:00;;;;;;;357.70;113.55;;;;;;;;;;6250370;28;20053;-61
2022/12/15 16:34:00;;;;;;;369.20;112.95;;;;;;;;;;6249429;28;20049;-62
2022/12/15 16:37:02;;;;;;;270.33;88.82;;;;;;;;;;6245799;28;20063;-62
2022/12/15 16:40:13;;;;;;;269.00;86.50;;;;;;;;;;6245210;28;20296;-62
2022/12/15 16:43:16;;;;;;;306.95;93.00;;;;;;;;;;6246482;28;20045;-62
2022/12/15 16:46:17;;;;;;;282.13;89.82;;;;;;;;;;6245981;28;20044;-62
2022/12/15 16:49:18;;;;;;;285.65;90.32;;;;;;;;;;6248679;28;20102;-61
2022/12/15 16:52:19;;;;;;;278.55;86.63;;;;;;;;;;6249692;28;20048;-61
2022/12/15 16:55:28;;;;;;;280.50;90.40;;;;;;;;;;6248128;28;20053;-62
2022/12/15 16:58:29;;;;;;;287.27;92.47;;;;;;;;;;6248312;28;20065;-61
2022/12/15 17:01:30;;;;;;;259.48;82.63;;;;;;;;;;6245716;28;20053;-62
2022/12/15 17:04:30;;;;;;;257.40;81.30;;;;;;;;;;6248590;28;20439;-62
2022/12/15 17:07:31;;;;;;;234.95;75.63;;;;;;;;;;6248463;28;20447;-61
2022/12/15 17:10:32;;;;;;;218.93;71.82;;;;;;;;;;6247072;28;20933;-61
2022/12/15 17:13:38;;;;;;;214.43;67.68;;;;;;;;;;6247687;28;20061;-61
2022/12/15 17:16:39;;;;;;;219.77;71.18;;;;;;;;;;6246952;28;20481;-62
2022/12/15 17:19:39;;;;;;;236.07;75.28;;;;;;;;;;6246157;28;20139;-60
2022/12/15 17:22:40;;;;;;;226.95;73.70;;;;;;;;;;6249979;28;20873;-60
2022/12/15 17:25:44;;;;;;;233.73;76.95;;;;;;;;;;6245214;28;20094;-60
2022/12/15 17:28:44;;;;;;;222.82;76.03;;;;;;;;;;6243034;28;20060;-60
2022/12/15 17:31:45;;;;;;;248.30;84.60;;;;;;;;;;6243507;28;20052;-60
2022/12/15 17:34:45;;;;;;;239.25;79.50;;;;;;;;;;6245737;28;20057;-60
2022/12/15 17:37:46;;;;;;;241.27;82.40;;;;;;;;;;6246534;28;20491;-60
2022/12/15 17:40:48;;;;;;;246.18;83.22;;;;;;;;;;6244091;28;20056;-60
2022/12/15 17:43:49;;;;;;;;;;;;;;;;;;6246842;28;20506;-60
2022/12/15 17:46:53;;;;;;;247.63;79.43;;;;;;;;;;6244441;28;19956;-60
2022/12/15 17:49:53;;;;;;;252.45;83.50;;;;;;;;;;6245627;28;20152;-60
2022/12/15 17:52:54;;;;;;;260.58;83.70;;;;;;;;;;6247199;28;20041;-60
2022/12/15 17:55:55;;;;;;;244.88;83.95;;;;;;;;;;6246068;28;20041;-61
2022/12/15 17:58:55;;;;;;;248.32;84.75;;;;;;;;;;6242993;28;20045;-60
2022/12/15 18:01:56;;;;;;;248.88;86.03;;;;;;;;;;6246045;28;20490;-60
2022/12/15 18:04:56;;;;;;;250.55;85.05;;;;;;;;;;6245892;28;20049;-61
2022/12/15 18:08:00;;;;;;;265.77;86.22;;;;;;;;;;6246750;28;20092;-60
2022/12/15 18:11:00;;;;;;;248.07;84.47;;;;;;;;;;6247258;28;20152;-63
2022/12/15 18:14:01;;;;;;;240.00;80.47;;;;;;;;;;6245998;28;20076;-60
2022/12/15 18:17:02;;;;;;;240.15;80.40;;;;;;;;;;6244854;28;20044;-60
2022/12/15 18:20:03;;;;;;;245.93;82.70;;;;;;;;;;6251489;28;20072;-60
2022/12/15 18:23:15;;;;;;;242.18;83.85;;;;;;;;;;6256868;28;20079;-61
2022/12/15 18:26:15;;;;;;;233.30;78.28;;;;;;;;;;6255519;28;20049;-60
2022/12/15 18:29:16;;;;;;;230.30;75.63;;;;;;;;;;6253499;28;20060;-59
2022/12/15 18:32:18;;;;;;;220.57;73.53;;;;;;;;;;6254955;28;20045;-60
2022/12/15 18:35:24;;;;;;;231.30;76.88;;;;;;;;;;6255008;28;20045;-60
2022/12/15 18:38:27;;;;;;;232.82;78.28;;;;;;;;;;6253721;28;20472;-60
2022/12/15 18:41:28;;;;;;;220.02;74.05;;;;;;;;;;6251673;28;20079;-62
2022/12/15 18:44:30;;;;;;;216.00;70.07;;;;;;;;;;6251318;28;20139;-60
2022/12/15 18:47:31;;;;;;;;;;;;;;;;;;6254654;28;20075;-61
2022/12/15 18:50:31;;;;;;;208.07;64.05;;;;;;;;;;6252849;28;20055;-60
2022/12/15 18:53:35;;;;;;;217.30;70.15;;;;;;;;;;6257978;28;20061;-60
2022/12/15 18:56:36;;;;;;;217.23;69.10;;;;;;;;;;6256101;28;20059;-61
2022/12/15 18:59:36;;;;;;;213.43;69.97;;;;;;;;;;6256135;28;20045;-61
2022/12/15 19:02:37;;;;;;;218.70;69.50;;;;;;;;;;6256979;28;20646;-61
2022/12/15 19:05:38;;;;;;;212.63;66.57;;;;;;;;;;6255744;28;20415;-61
2022/12/15 19:08:40;;;;;;;184.98;60.03;;;;;;;;;;6253976;28;20049;-61
2022/12/15 19:12:16;;;;;;;206.68;64.05;;;;;;;;;;6254227;28;20049;-64
2022/12/15 19:15:13;;;;;;;209.38;64.05;;;;;;;;;;6255800;28;20083;-62
2022/12/15 19:24:58;;;;;;;214.07;67.03;;;;;;;;;;6254450;28;20080;-64
2022/12/15 19:27:59;;;;;;;224.52;67.65;;;;;;;;;;6255307;28;20048;-64
2022/12/15 19:31:00;;;;;;;219.47;65.67;;;;;;;;;;6249750;28;20064;-61
2022/12/15 19:34:01;;;;;;;222.73;65.90;;;;;;;;;;6254729;28;20140;-65
2022/12/15 19:37:04;;;;;;;214.98;61.92;;;;;;;;;;6255960;28;20048;-64
2022/12/15 19:40:07;;;;;;;223.90;67.05;;;;;;;;;;6253815;28;20057;-62
2022/12/15 19:43:11;;;;;;;230.77;67.75;;;;;;;;;;6254120;28;20053;-62
2022/12/15 19:46:15;;;;;;;228.75;68.78;;;;;;;;;;6255626;28;20073;-62
2022/12/15 19:49:17;;;;;;;234.45;67.18;;;;;;;;;;6253348;28;20064;-63
2022/12/15 19:52:19;;;;;;;254.82;73.95;;;;;;;;;;6251638;28;20041;-61
2022/12/15 19:55:25;;;;;;;248.02;76.30;;;;;;;;;;6253709;28;20400;-60
2022/12/15 19:58:35;;;;;;;240.82;68.68;;;;;;;;;;6255212;28;20056;-61
2022/12/15 20:01:36;;;;;;;241.10;70.72;;;;;;;;;;6252227;28;20412;-61
2022/12/15 20:04:37;;;;;;;205.75;63.92;;;;;;;;;;6252055;28;20083;-60
2022/12/15 20:07:38;;;;;;;231.30;65.22;;;;;;;;;;6248722;28;20049;-59
2022/12/15 20:10:39;;;;;;;220.98;64.28;;;;;;;;;;6244354;28;20152;-60
2022/12/15 20:13:41;;;;;;;211.82;63.95;;;;;;;;;;6245485;28;22172;-60